sensor_id;sensor_type;location;lat;lon;timestamp;P1;durP1;ratioP1;P2;durP2;ratioP2
35128;SDS011;21301;43.626;10.580;2023-05-10T00:01:07;8.40;;;5.80;;
35128;SDS011;21301;43.626;10.580;2023-05-10T00:03:33;8.98;;;5.32;;
35128;SDS011;21301;43.626;10.580;2023-05-10T00:05:59;8.75;;;5.40;;
35128;SDS011;21301;43.626;10.580;2023-05-10T00:08:24;8.90;;;5.47;;
35128;SDS011;21301;43.626;10.580;2023-05-10T00:10:50;8.82;;;4.90;;
35128;SDS011;21301;43.626;10.580;2023-05-10T00:13:16;9.32;;;5.38;;
35128;SDS011;21301;43.626;10.580;2023-05-10T00:15:42;6.60;;;4.70;;
35128;SDS011;21301;43.626;10.580;2023-05-10T00:18:08;7.65;;;5.13;;
35128;SDS011;21301;43.626;10.580;2023-05-10T00:20:34;7.00;;;4.63;;
35128;SDS011;21301;43.626;10.580;2023-05-10T00:22:59;9.32;;;5.18;;
35128;SDS011;21301;43.626;10.580;2023-05-10T00:25:25;7.45;;;4.93;;
35128;SDS011;21301;43.626;10.580;2023-05-10T00:27:51;8.30;;;5.47;;
35128;SDS011;21301;43.626;10.580;2023-05-10T00:30:17;10.25;;;4.97;;
35128;SDS011;21301;43.626;10.580;2023-05-10T00:32:43;6.82;;;4.93;;
35128;SDS011;21301;43.626;10.580;2023-05-10T00:35:09;8.88;;;4.85;;
35128;SDS011;21301;43.626;10.580;2023-05-10T00:37:36;8.25;;;5.20;;
35128;SDS011;21301;43.626;10.580;2023-05-10T00:40:01;9.35;;;4.90;;
35128;SDS011;21301;43.626;10.580;2023-05-10T00:42:27;8.30;;;4.68;;
35128;SDS011;21301;43.626;10.580;2023-05-10T00:44:54;8.60;;;5.97;;
35128;SDS011;21301;43.626;10.580;2023-05-10T00:47:19;7.18;;;5.30;;
35128;SDS011;21301;43.626;10.580;2023-05-10T00:49:45;10.13;;;4.75;;
35128;SDS011;21301;43.626;10.580;2023-05-10T00:52:11;8.38;;;5.32;;
35128;SDS011;21301;43.626;10.580;2023-05-10T00:54:37;8.55;;;5.40;;
35128;SDS011;21301;43.626;10.580;2023-05-10T00:57:03;6.28;;;4.18;;
35128;SDS011;21301;43.626;10.580;2023-05-10T00:59:29;6.30;;;4.20;;
35128;SDS011;21301;43.626;10.580;2023-05-10T01:01:55;7.05;;;4.32;;
35128;SDS011;21301;43.626;10.580;2023-05-10T01:04:22;5.93;;;3.97;;
35128;SDS011;21301;43.626;10.580;2023-05-10T01:06:51;7.22;;;4.72;;
35128;SDS011;21301;43.626;10.580;2023-05-10T01:09:18;7.75;;;4.80;;
35128;SDS011;21301;43.626;10.580;2023-05-10T01:11:45;8.88;;;4.72;;
35128;SDS011;21301;43.626;10.580;2023-05-10T01:14:12;9.68;;;5.28;;
35128;SDS011;21301;43.626;10.580;2023-05-10T01:16:40;10.57;;;5.07;;
35128;SDS011;21301;43.626;10.580;2023-05-10T01:19:08;8.57;;;5.28;;
35128;SDS011;21301;43.626;10.580;2023-05-10T01:35:47;11.05;;;5.18;;
35128;SDS011;21301;43.626;10.580;2023-05-10T01:41:00;8.60;;;5.57;;
35128;SDS011;21301;43.626;10.580;2023-05-10T01:43:33;7.78;;;5.07;;
35128;SDS011;21301;43.626;10.580;2023-05-10T01:46:09;9.40;;;6.50;;
35128;SDS011;21301;43.626;10.580;2023-05-10T01:48:40;10.60;;;6.20;;
35128;SDS011;21301;43.626;10.580;2023-05-10T01:51:12;9.48;;;5.90;;
35128;SDS011;21301;43.626;10.580;2023-05-10T01:53:44;11.97;;;6.33;;
35128;SDS011;21301;43.626;10.580;2023-05-10T01:56:15;9.05;;;6.38;;
35128;SDS011;21301;43.626;10.580;2023-05-10T01:58:43;9.27;;;5.57;;
35128;SDS011;21301;43.626;10.580;2023-05-10T02:01:13;9.32;;;6.43;;
35128;SDS011;21301;43.626;10.580;2023-05-10T02:03:40;8.02;;;5.20;;
35128;SDS011;21301;43.626;10.580;2023-05-10T02:06:07;10.40;;;6.30;;
35128;SDS011;21301;43.626;10.580;2023-05-10T02:08:35;8.35;;;5.70;;
35128;SDS011;21301;43.626;10.580;2023-05-10T02:11:02;10.90;;;6.35;;
35128;SDS011;21301;43.626;10.580;2023-05-10T02:13:31;7.45;;;5.22;;
35128;SDS011;21301;43.626;10.580;2023-05-10T02:15:59;8.95;;;5.75;;
35128;SDS011;21301;43.626;10.580;2023-05-10T02:18:26;8.05;;;5.40;;
35128;SDS011;21301;43.626;10.580;2023-05-10T02:20:52;10.07;;;5.97;;
35128;SDS011;21301;43.626;10.580;2023-05-10T02:23:20;9.55;;;6.07;;
35128;SDS011;21301;43.626;10.580;2023-05-10T02:25:47;8.55;;;5.53;;
35128;SDS011;21301;43.626;10.580;2023-05-10T02:28:14;7.95;;;5.35;;
35128;SDS011;21301;43.626;10.580;2023-05-10T02:30:40;8.63;;;5.10;;
35128;SDS011;21301;43.626;10.580;2023-05-10T02:33:07;7.97;;;4.88;;
35128;SDS011;21301;43.626;10.580;2023-05-10T02:35:34;8.02;;;4.40;;
35128;SDS011;21301;43.626;10.580;2023-05-10T02:38:01;7.88;;;5.53;;
35128;SDS011;21301;43.626;10.580;2023-05-10T02:40:28;7.10;;;4.90;;
35128;SDS011;21301;43.626;10.580;2023-05-10T02:42:55;8.57;;;4.97;;
35128;SDS011;21301;43.626;10.580;2023-05-10T02:45:26;8.23;;;4.55;;
35128;SDS011;21301;43.626;10.580;2023-05-10T02:47:54;7.82;;;4.07;;
35128;SDS011;21301;43.626;10.580;2023-05-10T02:50:20;6.80;;;4.45;;
35128;SDS011;21301;43.626;10.580;2023-05-10T02:52:49;9.60;;;4.82;;
35128;SDS011;21301;43.626;10.580;2023-05-10T02:55:19;6.60;;;4.35;;
35128;SDS011;21301;43.626;10.580;2023-05-10T02:57:52;7.32;;;4.32;;
35128;SDS011;21301;43.626;10.580;2023-05-10T03:00:24;7.82;;;4.15;;
35128;SDS011;21301;43.626;10.580;2023-05-10T03:02:50;8.68;;;4.82;;
35128;SDS011;21301;43.626;10.580;2023-05-10T03:05:16;6.97;;;4.72;;
35128;SDS011;21301;43.626;10.580;2023-05-10T03:07:42;7.93;;;4.40;;
35128;SDS011;21301;43.626;10.580;2023-05-10T03:10:08;6.47;;;4.90;;
35128;SDS011;21301;43.626;10.580;2023-05-10T03:21:22;7.68;;;5.00;;
35128;SDS011;21301;43.626;10.580;2023-05-10T03:23:55;7.47;;;4.97;;
35128;SDS011;21301;43.626;10.580;2023-05-10T03:26:26;7.53;;;5.53;;
35128;SDS011;21301;43.626;10.580;2023-05-10T03:29:01;7.85;;;5.00;;
35128;SDS011;21301;43.626;10.580;2023-05-10T03:31:28;8.70;;;4.95;;
35128;SDS011;21301;43.626;10.580;2023-05-10T03:33:54;8.57;;;4.95;;
35128;SDS011;21301;43.626;10.580;2023-05-10T03:36:24;9.27;;;5.75;;
35128;SDS011;21301;43.626;10.580;2023-05-10T03:38:50;7.32;;;4.68;;
35128;SDS011;21301;43.626;10.580;2023-05-10T03:41:17;10.20;;;5.18;;
35128;SDS011;21301;43.626;10.580;2023-05-10T03:43:43;9.70;;;5.25;;
35128;SDS011;21301;43.626;10.580;2023-05-10T03:46:09;9.02;;;4.68;;
35128;SDS011;21301;43.626;10.580;2023-05-10T03:48:35;8.57;;;5.20;;
35128;SDS011;21301;43.626;10.580;2023-05-10T03:51:01;6.68;;;4.63;;
35128;SDS011;21301;43.626;10.580;2023-05-10T03:53:27;6.95;;;4.68;;
35128;SDS011;21301;43.626;10.580;2023-05-10T03:55:53;6.35;;;4.25;;
35128;SDS011;21301;43.626;10.580;2023-05-10T03:58:18;6.95;;;3.85;;
35128;SDS011;21301;43.626;10.580;2023-05-10T04:00:44;7.82;;;3.47;;
35128;SDS011;21301;43.626;10.580;2023-05-10T04:03:11;6.40;;;3.22;;
35128;SDS011;21301;43.626;10.580;2023-05-10T04:05:38;7.20;;;3.97;;
35128;SDS011;21301;43.626;10.580;2023-05-10T04:08:05;8.43;;;4.28;;
35128;SDS011;21301;43.626;10.580;2023-05-10T04:10:31;8.43;;;3.88;;
35128;SDS011;21301;43.626;10.580;2023-05-10T04:12:57;6.15;;;3.50;;
35128;SDS011;21301;43.626;10.580;2023-05-10T04:15:23;6.95;;;3.60;;
35128;SDS011;21301;43.626;10.580;2023-05-10T04:17:49;7.47;;;3.38;;
35128;SDS011;21301;43.626;10.580;2023-05-10T04:20:15;6.10;;;3.50;;
35128;SDS011;21301;43.626;10.580;2023-05-10T04:22:41;5.68;;;3.45;;
35128;SDS011;21301;43.626;10.580;2023-05-10T04:25:07;6.07;;;3.65;;
35128;SDS011;21301;43.626;10.580;2023-05-10T04:27:33;5.90;;;2.63;;
35128;SDS011;21301;43.626;10.580;2023-05-10T04:29:59;7.15;;;3.80;;
35128;SDS011;21301;43.626;10.580;2023-05-10T04:32:25;5.90;;;3.60;;
35128;SDS011;21301;43.626;10.580;2023-05-10T04:34:50;6.03;;;3.38;;
35128;SDS011;21301;43.626;10.580;2023-05-10T04:37:16;5.78;;;3.58;;
35128;SDS011;21301;43.626;10.580;2023-05-10T04:39:42;6.57;;;3.60;;
35128;SDS011;21301;43.626;10.580;2023-05-10T04:42:08;4.22;;;2.25;;
35128;SDS011;21301;43.626;10.580;2023-05-10T04:44:34;6.13;;;2.75;;
35128;SDS011;21301;43.626;10.580;2023-05-10T04:47:01;5.22;;;2.75;;
35128;SDS011;21301;43.626;10.580;2023-05-10T04:49:28;5.32;;;2.65;;
35128;SDS011;21301;43.626;10.580;2023-05-10T04:51:54;5.35;;;2.88;;
35128;SDS011;21301;43.626;10.580;2023-05-10T04:54:20;5.43;;;2.95;;
35128;SDS011;21301;43.626;10.580;2023-05-10T04:56:46;10.25;;;3.10;;
35128;SDS011;21301;43.626;10.580;2023-05-10T04:59:12;4.47;;;2.30;;
35128;SDS011;21301;43.626;10.580;2023-05-10T05:01:38;5.75;;;2.90;;
35128;SDS011;21301;43.626;10.580;2023-05-10T05:04:04;5.18;;;2.80;;
35128;SDS011;21301;43.626;10.580;2023-05-10T05:06:30;4.95;;;2.97;;
35128;SDS011;21301;43.626;10.580;2023-05-10T05:08:56;8.15;;;3.22;;
35128;SDS011;21301;43.626;10.580;2023-05-10T05:11:21;6.00;;;2.45;;
35128;SDS011;21301;43.626;10.580;2023-05-10T05:13:47;5.63;;;2.67;;
35128;SDS011;21301;43.626;10.580;2023-05-10T05:16:13;5.40;;;3.03;;
35128;SDS011;21301;43.626;10.580;2023-05-10T05:18:39;4.93;;;3.10;;
35128;SDS011;21301;43.626;10.580;2023-05-10T05:21:18;8.07;;;3.58;;
35128;SDS011;21301;43.626;10.580;2023-05-10T05:23:44;5.47;;;2.90;;
35128;SDS011;21301;43.626;10.580;2023-05-10T05:26:11;6.38;;;3.45;;
35128;SDS011;21301;43.626;10.580;2023-05-10T05:28:37;5.63;;;2.83;;
35128;SDS011;21301;43.626;10.580;2023-05-10T05:31:03;5.82;;;2.85;;
35128;SDS011;21301;43.626;10.580;2023-05-10T05:33:30;4.80;;;2.70;;
35128;SDS011;21301;43.626;10.580;2023-05-10T05:35:56;5.35;;;3.10;;
35128;SDS011;21301;43.626;10.580;2023-05-10T05:38:22;5.07;;;2.85;;
35128;SDS011;21301;43.626;10.580;2023-05-10T05:40:48;6.70;;;3.50;;
35128;SDS011;21301;43.626;10.580;2023-05-10T05:43:14;6.72;;;3.20;;
35128;SDS011;21301;43.626;10.580;2023-05-10T05:45:40;6.43;;;3.53;;
35128;SDS011;21301;43.626;10.580;2023-05-10T05:48:06;5.20;;;3.03;;
35128;SDS011;21301;43.626;10.580;2023-05-10T05:50:32;6.10;;;3.45;;
35128;SDS011;21301;43.626;10.580;2023-05-10T05:52:57;5.03;;;3.13;;
35128;SDS011;21301;43.626;10.580;2023-05-10T05:55:23;4.97;;;2.78;;
35128;SDS011;21301;43.626;10.580;2023-05-10T05:57:50;7.28;;;3.13;;
35128;SDS011;21301;43.626;10.580;2023-05-10T06:00:16;5.88;;;3.00;;
35128;SDS011;21301;43.626;10.580;2023-05-10T06:02:43;5.60;;;2.95;;
35128;SDS011;21301;43.626;10.580;2023-05-10T06:05:09;6.60;;;2.78;;
35128;SDS011;21301;43.626;10.580;2023-05-10T06:07:35;9.45;;;5.20;;
35128;SDS011;21301;43.626;10.580;2023-05-10T06:10:01;7.65;;;4.47;;
35128;SDS011;21301;43.626;10.580;2023-05-10T06:12:27;10.18;;;4.40;;
35128;SDS011;21301;43.626;10.580;2023-05-10T06:14:53;11.40;;;5.03;;
35128;SDS011;21301;43.626;10.580;2023-05-10T06:17:19;7.40;;;3.67;;
35128;SDS011;21301;43.626;10.580;2023-05-10T06:19:45;6.22;;;3.35;;
35128;SDS011;21301;43.626;10.580;2023-05-10T06:22:11;5.90;;;3.22;;
35128;SDS011;21301;43.626;10.580;2023-05-10T06:24:37;5.65;;;3.05;;
35128;SDS011;21301;43.626;10.580;2023-05-10T06:27:02;6.72;;;3.03;;
35128;SDS011;21301;43.626;10.580;2023-05-10T06:29:29;9.02;;;4.45;;
35128;SDS011;21301;43.626;10.580;2023-05-10T06:31:54;19.98;;;8.98;;
35128;SDS011;21301;43.626;10.580;2023-05-10T06:34:20;16.42;;;6.57;;
35128;SDS011;21301;43.626;10.580;2023-05-10T06:36:46;35.22;;;12.80;;
35128;SDS011;21301;43.626;10.580;2023-05-10T06:39:12;25.10;;;9.57;;
35128;SDS011;21301;43.626;10.580;2023-05-10T06:41:37;41.80;;;15.27;;
35128;SDS011;21301;43.626;10.580;2023-05-10T06:44:03;29.95;;;11.48;;
35128;SDS011;21301;43.626;10.580;2023-05-10T06:46:30;39.45;;;14.40;;
35128;SDS011;21301;43.626;10.580;2023-05-10T06:48:55;28.08;;;11.15;;
35128;SDS011;21301;43.626;10.580;2023-05-10T06:51:21;37.25;;;14.32;;
35128;SDS011;21301;43.626;10.580;2023-05-10T06:53:47;53.22;;;19.83;;
35128;SDS011;21301;43.626;10.580;2023-05-10T06:56:13;36.80;;;14.05;;
35128;SDS011;21301;43.626;10.580;2023-05-10T06:58:39;32.85;;;13.30;;
35128;SDS011;21301;43.626;10.580;2023-05-10T07:01:05;40.33;;;17.33;;
35128;SDS011;21301;43.626;10.580;2023-05-10T07:03:31;28.77;;;10.68;;
35128;SDS011;21301;43.626;10.580;2023-05-10T07:06:03;21.48;;;9.95;;
35128;SDS011;21301;43.626;10.580;2023-05-10T07:08:30;10.20;;;4.22;;
35128;SDS011;21301;43.626;10.580;2023-05-10T07:11:03;16.73;;;6.82;;
35128;SDS011;21301;43.626;10.580;2023-05-10T07:13:33;23.30;;;9.02;;
35128;SDS011;21301;43.626;10.580;2023-05-10T07:16:00;16.50;;;8.00;;
35128;SDS011;21301;43.626;10.580;2023-05-10T07:18:27;17.05;;;6.72;;
35128;SDS011;21301;43.626;10.580;2023-05-10T07:20:53;4.43;;;2.28;;
35128;SDS011;21301;43.626;10.580;2023-05-10T07:23:18;6.88;;;2.20;;
35128;SDS011;21301;43.626;10.580;2023-05-10T07:25:48;6.13;;;2.13;;
35128;SDS011;21301;43.626;10.580;2023-05-10T07:28:14;4.15;;;1.95;;
35128;SDS011;21301;43.626;10.580;2023-05-10T07:30:41;5.40;;;2.40;;
35128;SDS011;21301;43.626;10.580;2023-05-10T07:33:08;6.30;;;1.92;;
35128;SDS011;21301;43.626;10.580;2023-05-10T07:35:35;4.68;;;2.25;;
35128;SDS011;21301;43.626;10.580;2023-05-10T07:38:01;6.03;;;1.95;;
35128;SDS011;21301;43.626;10.580;2023-05-10T07:40:27;6.00;;;2.50;;
35128;SDS011;21301;43.626;10.580;2023-05-10T07:42:53;6.53;;;2.75;;
35128;SDS011;21301;43.626;10.580;2023-05-10T07:45:22;4.03;;;2.13;;
35128;SDS011;21301;43.626;10.580;2023-05-10T07:47:48;5.38;;;2.63;;
35128;SDS011;21301;43.626;10.580;2023-05-10T07:50:14;4.10;;;1.83;;
35128;SDS011;21301;43.626;10.580;2023-05-10T07:52:40;5.47;;;2.38;;
35128;SDS011;21301;43.626;10.580;2023-05-10T07:55:07;3.97;;;1.95;;
35128;SDS011;21301;43.626;10.580;2023-05-10T07:57:33;3.92;;;2.00;;
35128;SDS011;21301;43.626;10.580;2023-05-10T07:59:59;8.27;;;3.08;;
35128;SDS011;21301;43.626;10.580;2023-05-10T08:02:25;4.53;;;2.38;;
35128;SDS011;21301;43.626;10.580;2023-05-10T08:04:51;7.38;;;2.40;;
35128;SDS011;21301;43.626;10.580;2023-05-10T08:07:17;5.70;;;2.72;;
35128;SDS011;21301;43.626;10.580;2023-05-10T08:09:42;4.60;;;2.38;;
35128;SDS011;21301;43.626;10.580;2023-05-10T08:12:08;5.95;;;2.50;;
35128;SDS011;21301;43.626;10.580;2023-05-10T08:14:34;5.57;;;2.67;;
35128;SDS011;21301;43.626;10.580;2023-05-10T08:17:02;7.20;;;2.35;;
35128;SDS011;21301;43.626;10.580;2023-05-10T08:19:28;4.07;;;2.03;;
35128;SDS011;21301;43.626;10.580;2023-05-10T08:21:54;4.35;;;1.85;;
35128;SDS011;21301;43.626;10.580;2023-05-10T08:24:23;5.07;;;2.33;;
35128;SDS011;21301;43.626;10.580;2023-05-10T08:26:48;3.50;;;1.83;;
35128;SDS011;21301;43.626;10.580;2023-05-10T08:29:14;5.03;;;2.58;;
35128;SDS011;21301;43.626;10.580;2023-05-10T08:31:40;4.32;;;2.15;;
35128;SDS011;21301;43.626;10.580;2023-05-10T08:34:06;9.65;;;3.50;;
35128;SDS011;21301;43.626;10.580;2023-05-10T08:36:32;5.55;;;3.08;;
35128;SDS011;21301;43.626;10.580;2023-05-10T08:38:58;6.40;;;2.13;;
35128;SDS011;21301;43.626;10.580;2023-05-10T08:41:24;4.43;;;2.33;;
35128;SDS011;21301;43.626;10.580;2023-05-10T08:43:51;4.15;;;1.88;;
35128;SDS011;21301;43.626;10.580;2023-05-10T08:46:18;6.28;;;2.55;;
35128;SDS011;21301;43.626;10.580;2023-05-10T08:48:46;6.75;;;2.70;;
35128;SDS011;21301;43.626;10.580;2023-05-10T08:51:14;5.10;;;2.70;;
35128;SDS011;21301;43.626;10.580;2023-05-10T08:53:45;5.95;;;2.17;;
35128;SDS011;21301;43.626;10.580;2023-05-10T08:56:11;4.18;;;2.15;;
35128;SDS011;21301;43.626;10.580;2023-05-10T08:58:37;4.18;;;2.00;;
35128;SDS011;21301;43.626;10.580;2023-05-10T09:01:04;4.57;;;2.40;;
35128;SDS011;21301;43.626;10.580;2023-05-10T09:03:30;5.53;;;2.75;;
35128;SDS011;21301;43.626;10.580;2023-05-10T09:05:57;5.38;;;2.35;;
35128;SDS011;21301;43.626;10.580;2023-05-10T09:08:25;5.15;;;2.47;;
35128;SDS011;21301;43.626;10.580;2023-05-10T09:10:52;5.75;;;2.33;;
35128;SDS011;21301;43.626;10.580;2023-05-10T09:13:18;5.43;;;2.58;;
35128;SDS011;21301;43.626;10.580;2023-05-10T09:15:46;5.35;;;2.30;;
35128;SDS011;21301;43.626;10.580;2023-05-10T09:18:13;5.88;;;2.85;;
35128;SDS011;21301;43.626;10.580;2023-05-10T09:20:38;6.28;;;2.38;;
35128;SDS011;21301;43.626;10.580;2023-05-10T09:23:05;5.68;;;1.92;;
35128;SDS011;21301;43.626;10.580;2023-05-10T09:25:31;5.78;;;2.20;;
35128;SDS011;21301;43.626;10.580;2023-05-10T09:27:58;4.05;;;2.10;;
35128;SDS011;21301;43.626;10.580;2023-05-10T09:30:25;3.85;;;2.10;;
35128;SDS011;21301;43.626;10.580;2023-05-10T09:32:53;8.90;;;2.72;;
35128;SDS011;21301;43.626;10.580;2023-05-10T09:35:24;5.63;;;2.22;;
35128;SDS011;21301;43.626;10.580;2023-05-10T09:37:52;4.90;;;2.45;;
35128;SDS011;21301;43.626;10.580;2023-05-10T09:40:21;5.90;;;2.60;;
35128;SDS011;21301;43.626;10.580;2023-05-10T09:42:52;4.50;;;2.05;;
35128;SDS011;21301;43.626;10.580;2023-05-10T09:45:18;6.28;;;3.05;;
35128;SDS011;21301;43.626;10.580;2023-05-10T09:47:45;5.20;;;2.60;;
35128;SDS011;21301;43.626;10.580;2023-05-10T09:50:11;4.43;;;2.25;;
35128;SDS011;21301;43.626;10.580;2023-05-10T09:52:47;3.65;;;2.03;;
35128;SDS011;21301;43.626;10.580;2023-05-10T09:55:13;4.72;;;2.30;;
35128;SDS011;21301;43.626;10.580;2023-05-10T09:57:39;4.20;;;2.08;;
35128;SDS011;21301;43.626;10.580;2023-05-10T10:00:06;6.60;;;3.08;;
35128;SDS011;21301;43.626;10.580;2023-05-10T10:02:38;7.38;;;3.10;;
35128;SDS011;21301;43.626;10.580;2023-05-10T10:05:06;4.28;;;2.42;;
35128;SDS011;21301;43.626;10.580;2023-05-10T10:07:32;5.70;;;2.50;;
35128;SDS011;21301;43.626;10.580;2023-05-10T10:09:59;5.53;;;2.30;;
35128;SDS011;21301;43.626;10.580;2023-05-10T10:12:25;5.72;;;2.80;;
35128;SDS011;21301;43.626;10.580;2023-05-10T10:14:51;4.05;;;2.15;;
35128;SDS011;21301;43.626;10.580;2023-05-10T10:17:18;6.45;;;2.42;;
35128;SDS011;21301;43.626;10.580;2023-05-10T10:19:45;4.63;;;2.33;;
35128;SDS011;21301;43.626;10.580;2023-05-10T10:22:12;4.57;;;2.22;;
35128;SDS011;21301;43.626;10.580;2023-05-10T10:24:38;4.53;;;2.53;;
35128;SDS011;21301;43.626;10.580;2023-05-10T10:27:23;5.78;;;2.60;;
35128;SDS011;21301;43.626;10.580;2023-05-10T10:35:31;6.60;;;2.72;;
35128;SDS011;21301;43.626;10.580;2023-05-10T10:37:57;5.40;;;2.90;;
35128;SDS011;21301;43.626;10.580;2023-05-10T10:40:24;4.80;;;2.22;;
35128;SDS011;21301;43.626;10.580;2023-05-10T10:42:52;4.43;;;2.50;;
35128;SDS011;21301;43.626;10.580;2023-05-10T10:45:19;3.50;;;1.73;;
35128;SDS011;21301;43.626;10.580;2023-05-10T10:47:45;5.15;;;2.42;;
35128;SDS011;21301;43.626;10.580;2023-05-10T10:50:11;3.67;;;1.73;;
35128;SDS011;21301;43.626;10.580;2023-05-10T10:52:44;3.60;;;2.03;;
35128;SDS011;21301;43.626;10.580;2023-05-10T10:55:18;4.97;;;1.65;;
35128;SDS011;21301;43.626;10.580;2023-05-10T10:57:51;3.05;;;1.60;;
35128;SDS011;21301;43.626;10.580;2023-05-10T11:00:29;3.88;;;1.80;;
35128;SDS011;21301;43.626;10.580;2023-05-10T11:02:57;4.90;;;1.98;;
35128;SDS011;21301;43.626;10.580;2023-05-10T11:08:07;5.68;;;1.83;;
35128;SDS011;21301;43.626;10.580;2023-05-10T11:11:16;8.07;;;1.77;;
35128;SDS011;21301;43.626;10.580;2023-05-10T11:13:40;4.63;;;1.95;;
35128;SDS011;21301;43.626;10.580;2023-05-10T11:18:40;4.93;;;2.05;;
35128;SDS011;21301;43.626;10.580;2023-05-10T11:21:16;3.67;;;1.85;;
35128;SDS011;21301;43.626;10.580;2023-05-10T11:23:55;7.25;;;2.25;;
35128;SDS011;21301;43.626;10.580;2023-05-10T11:26:23;4.50;;;1.73;;
35128;SDS011;21301;43.626;10.580;2023-05-10T11:28:50;3.13;;;1.45;;
35128;SDS011;21301;43.626;10.580;2023-05-10T11:31:19;5.68;;;2.15;;
35128;SDS011;21301;43.626;10.580;2023-05-10T11:33:45;4.25;;;1.85;;
35128;SDS011;21301;43.626;10.580;2023-05-10T11:36:19;3.55;;;1.50;;
35128;SDS011;21301;43.626;10.580;2023-05-10T11:38:47;3.40;;;1.50;;
35128;SDS011;21301;43.626;10.580;2023-05-10T11:41:15;4.82;;;1.80;;
35128;SDS011;21301;43.626;10.580;2023-05-10T11:43:42;4.85;;;1.88;;
35128;SDS011;21301;43.626;10.580;2023-05-10T11:46:11;5.43;;;1.77;;
35128;SDS011;21301;43.626;10.580;2023-05-10T11:48:38;3.85;;;1.80;;
35128;SDS011;21301;43.626;10.580;2023-05-10T11:51:05;4.22;;;1.50;;
35128;SDS011;21301;43.626;10.580;2023-05-10T11:53:32;3.00;;;1.48;;
35128;SDS011;21301;43.626;10.580;2023-05-10T11:56:10;3.42;;;1.52;;
35128;SDS011;21301;43.626;10.580;2023-05-10T11:58:37;4.35;;;2.33;;
35128;SDS011;21301;43.626;10.580;2023-05-10T12:01:04;5.70;;;1.92;;
35128;SDS011;21301;43.626;10.580;2023-05-10T12:03:32;3.42;;;1.85;;
35128;SDS011;21301;43.626;10.580;2023-05-10T12:06:00;3.95;;;1.80;;
35128;SDS011;21301;43.626;10.580;2023-05-10T12:08:27;3.83;;;1.60;;
35128;SDS011;21301;43.626;10.580;2023-05-10T12:11:03;5.22;;;2.17;;
35128;SDS011;21301;43.626;10.580;2023-05-10T12:13:40;4.20;;;1.48;;
35128;SDS011;21301;43.626;10.580;2023-05-10T12:16:17;3.17;;;1.40;;
35128;SDS011;21301;43.626;10.580;2023-05-10T12:18:48;5.43;;;2.10;;
35128;SDS011;21301;43.626;10.580;2023-05-10T12:21:15;3.33;;;1.65;;
35128;SDS011;21301;43.626;10.580;2023-05-10T12:23:41;3.58;;;1.77;;
35128;SDS011;21301;43.626;10.580;2023-05-10T12:26:10;4.28;;;2.10;;
35128;SDS011;21301;43.626;10.580;2023-05-10T12:28:36;2.95;;;1.55;;
35128;SDS011;21301;43.626;10.580;2023-05-10T12:31:02;5.65;;;1.73;;
35128;SDS011;21301;43.626;10.580;2023-05-10T12:33:36;4.38;;;1.50;;
35128;SDS011;21301;43.626;10.580;2023-05-10T12:36:04;4.18;;;1.67;;
35128;SDS011;21301;43.626;10.580;2023-05-10T12:38:34;3.50;;;1.60;;
35128;SDS011;21301;43.626;10.580;2023-05-10T12:41:07;4.93;;;1.73;;
35128;SDS011;21301;43.626;10.580;2023-05-10T12:43:38;9.60;;;2.75;;
35128;SDS011;21301;43.626;10.580;2023-05-10T12:46:08;4.57;;;2.13;;
35128;SDS011;21301;43.626;10.580;2023-05-10T12:48:35;8.93;;;3.97;;
35128;SDS011;21301;43.626;10.580;2023-05-10T12:51:02;8.02;;;2.85;;
35128;SDS011;21301;43.626;10.580;2023-05-10T12:53:28;5.60;;;2.83;;
35128;SDS011;21301;43.626;10.580;2023-05-10T12:55:54;5.40;;;2.08;;
35128;SDS011;21301;43.626;10.580;2023-05-10T12:58:20;6.25;;;2.08;;
35128;SDS011;21301;43.626;10.580;2023-05-10T13:00:46;3.65;;;1.65;;
35128;SDS011;21301;43.626;10.580;2023-05-10T13:03:12;3.10;;;1.40;;
35128;SDS011;21301;43.626;10.580;2023-05-10T13:05:38;2.25;;;1.02;;
35128;SDS011;21301;43.626;10.580;2023-05-10T13:08:04;4.20;;;0.85;;
35128;SDS011;21301;43.626;10.580;2023-05-10T13:10:30;1.15;;;0.47;;
35128;SDS011;21301;43.626;10.580;2023-05-10T13:12:57;0.95;;;0.35;;
35128;SDS011;21301;43.626;10.580;2023-05-10T13:15:23;1.33;;;0.50;;
35128;SDS011;21301;43.626;10.580;2023-05-10T13:17:50;0.40;;;0.20;;
35128;SDS011;21301;43.626;10.580;2023-05-10T13:20:16;0.35;;;0.10;;
35128;SDS011;21301;43.626;10.580;2023-05-10T13:22:43;0.80;;;0.30;;
35128;SDS011;21301;43.626;10.580;2023-05-10T13:25:09;0.85;;;0.30;;
35128;SDS011;21301;43.626;10.580;2023-05-10T13:27:36;1.30;;;0.32;;
35128;SDS011;21301;43.626;10.580;2023-05-10T13:30:06;1.25;;;0.45;;
35128;SDS011;21301;43.626;10.580;2023-05-10T13:32:32;0.40;;;0.30;;
35128;SDS011;21301;43.626;10.580;2023-05-10T13:34:58;0.43;;;0.30;;
35128;SDS011;21301;43.626;10.580;2023-05-10T13:37:24;2.35;;;0.30;;
35128;SDS011;21301;43.626;10.580;2023-05-10T13:39:50;1.05;;;0.30;;
35128;SDS011;21301;43.626;10.580;2023-05-10T13:42:16;0.65;;;0.30;;
35128;SDS011;21301;43.626;10.580;2023-05-10T13:44:43;2.88;;;0.98;;
35128;SDS011;21301;43.626;10.580;2023-05-10T13:47:08;6.85;;;1.85;;
35128;SDS011;21301;43.626;10.580;2023-05-10T13:49:35;1.33;;;0.50;;
35128;SDS011;21301;43.626;10.580;2023-05-10T13:52:01;2.05;;;0.30;;
35128;SDS011;21301;43.626;10.580;2023-05-10T13:54:35;0.80;;;0.40;;
35128;SDS011;21301;43.626;10.580;2023-05-10T13:57:01;1.33;;;0.40;;
35128;SDS011;21301;43.626;10.580;2023-05-10T13:59:28;1.15;;;0.47;;
35128;SDS011;21301;43.626;10.580;2023-05-10T14:01:54;0.43;;;0.28;;
35128;SDS011;21301;43.626;10.580;2023-05-10T14:04:20;1.25;;;0.32;;
35128;SDS011;21301;43.626;10.580;2023-05-10T14:06:45;1.48;;;0.50;;
35128;SDS011;21301;43.626;10.580;2023-05-10T14:09:11;0.93;;;0.40;;
35128;SDS011;21301;43.626;10.580;2023-05-10T14:11:37;1.17;;;0.40;;
35128;SDS011;21301;43.626;10.580;2023-05-10T14:14:08;2.40;;;0.50;;
35128;SDS011;21301;43.626;10.580;2023-05-10T14:16:34;1.67;;;0.55;;
35128;SDS011;21301;43.626;10.580;2023-05-10T14:19:00;3.90;;;0.50;;
35128;SDS011;21301;43.626;10.580;2023-05-10T14:21:26;1.17;;;0.60;;
35128;SDS011;21301;43.626;10.580;2023-05-10T14:23:54;1.60;;;0.60;;
35128;SDS011;21301;43.626;10.580;2023-05-10T14:26:20;1.70;;;0.50;;
35128;SDS011;21301;43.626;10.580;2023-05-10T14:28:47;1.48;;;0.50;;
35128;SDS011;21301;43.626;10.580;2023-05-10T14:31:13;1.52;;;0.52;;
35128;SDS011;21301;43.626;10.580;2023-05-10T14:33:39;1.60;;;0.68;;
35128;SDS011;21301;43.626;10.580;2023-05-10T14:36:06;2.22;;;0.63;;
35128;SDS011;21301;43.626;10.580;2023-05-10T14:38:32;0.60;;;0.25;;
35128;SDS011;21301;43.626;10.580;2023-05-10T14:40:58;1.23;;;0.40;;
35128;SDS011;21301;43.626;10.580;2023-05-10T14:43:24;0.77;;;0.32;;
35128;SDS011;21301;43.626;10.580;2023-05-10T14:45:49;0.80;;;0.30;;
35128;SDS011;21301;43.626;10.580;2023-05-10T14:48:15;1.10;;;0.50;;
35128;SDS011;21301;43.626;10.580;2023-05-10T14:50:43;2.25;;;0.55;;
35128;SDS011;21301;43.626;10.580;2023-05-10T14:53:09;2.17;;;0.75;;
35128;SDS011;21301;43.626;10.580;2023-05-10T14:55:34;2.13;;;0.40;;
35128;SDS011;21301;43.626;10.580;2023-05-10T14:58:04;1.88;;;0.60;;
35128;SDS011;21301;43.626;10.580;2023-05-10T15:00:30;1.25;;;0.38;;
35128;SDS011;21301;43.626;10.580;2023-05-10T15:02:56;1.38;;;0.60;;
35128;SDS011;21301;43.626;10.580;2023-05-10T15:05:23;1.17;;;0.50;;
35128;SDS011;21301;43.626;10.580;2023-05-10T15:07:49;1.42;;;0.50;;
35128;SDS011;21301;43.626;10.580;2023-05-10T15:10:14;1.70;;;0.60;;